sensor_id;sensor_type;location;lat;lon;timestamp;pressure;altitude;pressure_sealevel;temperature;humidity
21988;BME280;11158;53.404;-1.510;2023-03-05T00:01:39;101520.56;;;8.88;43.78
21988;BME280;11158;53.404;-1.510;2023-03-05T00:04:08;101516.84;;;9.09;43.36
21988;BME280;11158;53.404;-1.510;2023-03-05T00:06:34;101519.03;;;10.04;41.17
21988;BME280;11158;53.404;-1.510;2023-03-05T00:09:00;101514.00;;;10.63;40.04
21988;BME280;11158;53.404;-1.510;2023-03-05T00:11:27;101511.91;;;11.18;39.05
21988;BME280;11158;53.404;-1.510;2023-03-05T00:13:54;101506.56;;;11.18;38.59
21988;BME280;11158;53.404;-1.510;2023-03-05T00:16:21;101505.91;;;11.16;38.93
21988;BME280;11158;53.404;-1.510;2023-03-05T00:18:48;101506.16;;;11.39;38.62
21988;BME280;11158;53.404;-1.510;2023-03-05T00:21:32;101496.28;;;10.18;39.96
21988;BME280;11158;53.404;-1.510;2023-03-05T00:23:58;101497.38;;;9.90;41.05
21988;BME280;11158;53.404;-1.510;2023-03-05T00:26:29;101498.47;;;10.23;40.30
21988;BME280;11158;53.404;-1.510;2023-03-05T00:28:55;101499.25;;;10.59;39.85
21988;BME280;11158;53.404;-1.510;2023-03-05T00:31:24;101493.72;;;10.53;39.61
21988;BME280;11158;53.404;-1.510;2023-03-05T00:33:54;101483.81;;;10.27;40.29
21988;BME280;11158;53.404;-1.510;2023-03-05T00:36:21;101479.72;;;10.15;40.31
21988;BME280;11158;53.404;-1.510;2023-03-05T00:38:46;101465.94;;;10.45;40.19
21988;BME280;11158;53.404;-1.510;2023-03-05T00:41:12;101468.47;;;10.47;40.27
21988;BME280;11158;53.404;-1.510;2023-03-05T00:43:38;101458.56;;;10.74;39.80
21988;BME280;11158;53.404;-1.510;2023-03-05T00:46:03;101459.50;;;10.56;40.29
21988;BME280;11158;53.404;-1.510;2023-03-05T00:48:29;101464.94;;;10.81;39.87
21988;BME280;11158;53.404;-1.510;2023-03-05T00:50:54;101456.69;;;10.66;39.61
21988;BME280;11158;53.404;-1.510;2023-03-05T00:53:20;101455.97;;;10.30;40.64
21988;BME280;11158;53.404;-1.510;2023-03-05T00:55:46;101449.78;;;10.55;40.07
21988;BME280;11158;53.404;-1.510;2023-03-05T00:58:13;101459.91;;;10.78;39.51
21988;BME280;11158;53.404;-1.510;2023-03-05T01:00:38;101454.13;;;10.56;39.67
21988;BME280;11158;53.404;-1.510;2023-03-05T01:03:04;101445.66;;;10.69;39.65
21988;BME280;11158;53.404;-1.510;2023-03-05T01:05:30;101444.88;;;10.24;40.64
21988;BME280;11158;53.404;-1.510;2023-03-05T01:07:55;101442.34;;;10.41;40.52
21988;BME280;11158;53.404;-1.510;2023-03-05T01:10:22;101446.75;;;10.50;40.08
21988;BME280;11158;53.404;-1.510;2023-03-05T01:12:51;101441.34;;;10.76;39.66
21988;BME280;11158;53.404;-1.510;2023-03-05T01:15:17;101434.53;;;10.82;39.20
21988;BME280;11158;53.404;-1.510;2023-03-05T01:17:43;101438.88;;;10.48;39.81
21988;BME280;11158;53.404;-1.510;2023-03-05T01:20:11;101445.09;;;10.49;39.90
21988;BME280;11158;53.404;-1.510;2023-03-05T01:22:38;101432.50;;;10.76;39.22
21988;BME280;11158;53.404;-1.510;2023-03-05T01:25:04;101434.19;;;10.42;40.12
21988;BME280;11158;53.404;-1.510;2023-03-05T01:27:29;101425.72;;;9.85;41.61
21988;BME280;11158;53.404;-1.510;2023-03-05T01:29:55;101420.91;;;9.89;41.31
21988;BME280;11158;53.404;-1.510;2023-03-05T01:32:21;101420.84;;;10.24;40.57
21988;BME280;11158;53.404;-1.510;2023-03-05T01:34:46;101413.09;;;10.39;40.04
21988;BME280;11158;53.404;-1.510;2023-03-05T01:37:12;101417.19;;;10.52;39.77
21988;BME280;11158;53.404;-1.510;2023-03-05T01:39:38;101407.25;;;10.36;40.27
21988;BME280;11158;53.404;-1.510;2023-03-05T01:42:03;101408.03;;;10.62;39.73
21988;BME280;11158;53.404;-1.510;2023-03-05T01:44:30;101404.41;;;10.72;39.75
21988;BME280;11158;53.404;-1.510;2023-03-05T01:46:56;101407.59;;;10.75;39.43
21988;BME280;11158;53.404;-1.510;2023-03-05T01:49:31;101409.72;;;10.63;39.98
21988;BME280;11158;53.404;-1.510;2023-03-05T01:52:16;101405.41;;;10.36;40.48
21988;BME280;11158;53.404;-1.510;2023-03-05T01:54:47;101407.41;;;10.16;40.89
21988;BME280;11158;53.404;-1.510;2023-03-05T01:57:22;101389.28;;;9.58;41.72
21988;BME280;11158;53.404;-1.510;2023-03-05T01:59:51;101392.19;;;9.64;42.17
21988;BME280;11158;53.404;-1.510;2023-03-05T02:02:18;101390.72;;;9.70;41.92
21988;BME280;11158;53.404;-1.510;2023-03-05T02:05:09;101380.50;;;9.48;42.26
21988;BME280;11158;53.404;-1.510;2023-03-05T02:07:35;101380.88;;;9.71;41.65
21988;BME280;11158;53.404;-1.510;2023-03-05T02:10:23;101379.88;;;9.90;41.92
21988;BME280;11158;53.404;-1.510;2023-03-05T02:12:49;101371.53;;;9.93;41.23
21988;BME280;11158;53.404;-1.510;2023-03-05T02:15:16;101381.59;;;10.25;40.59
21988;BME280;11158;53.404;-1.510;2023-03-05T02:17:42;101371.56;;;10.53;39.97
21988;BME280;11158;53.404;-1.510;2023-03-05T02:20:11;101371.16;;;10.40;40.18
21988;BME280;11158;53.404;-1.510;2023-03-05T02:22:37;101370.53;;;10.46;40.19
21988;BME280;11158;53.404;-1.510;2023-03-05T02:25:18;101369.44;;;10.04;40.93
21988;BME280;11158;53.404;-1.510;2023-03-05T02:27:50;101376.09;;;10.26;40.38
21988;BME280;11158;53.404;-1.510;2023-03-05T02:30:18;101366.59;;;10.66;39.87
21988;BME280;11158;53.404;-1.510;2023-03-05T02:32:44;101352.94;;;10.78;39.46
21988;BME280;11158;53.404;-1.510;2023-03-05T02:35:09;101348.28;;;10.88;39.55
21988;BME280;11158;53.404;-1.510;2023-03-05T02:37:50;101353.16;;;11.01;39.01
21988;BME280;11158;53.404;-1.510;2023-03-05T02:40:16;101348.00;;;11.07;38.98
21988;BME280;11158;53.404;-1.510;2023-03-05T02:42:41;101336.97;;;11.27;38.65
21988;BME280;11158;53.404;-1.510;2023-03-05T02:45:09;101338.84;;;11.35;38.68
21988;BME280;11158;53.404;-1.510;2023-03-05T02:47:35;101328.63;;;11.22;38.54
21988;BME280;11158;53.404;-1.510;2023-03-05T02:50:01;101326.94;;;11.04;39.36
21988;BME280;11158;53.404;-1.510;2023-03-05T02:52:27;101326.38;;;10.84;39.64
21988;BME280;11158;53.404;-1.510;2023-03-05T02:54:54;101315.03;;;10.90;39.56
21988;BME280;11158;53.404;-1.510;2023-03-05T02:57:19;101314.63;;;10.61;40.01
21988;BME280;11158;53.404;-1.510;2023-03-05T02:59:45;101304.19;;;10.33;40.45
21988;BME280;11158;53.404;-1.510;2023-03-05T03:02:12;101312.78;;;10.27;40.72
21988;BME280;11158;53.404;-1.510;2023-03-05T03:04:37;101298.34;;;10.46;40.29
21988;BME280;11158;53.404;-1.510;2023-03-05T03:07:03;101298.59;;;9.48;42.31
21988;BME280;11158;53.404;-1.510;2023-03-05T03:09:29;101289.97;;;9.28;42.37
21988;BME280;11158;53.404;-1.510;2023-03-05T03:11:54;101290.72;;;8.67;43.83
21988;BME280;11158;53.404;-1.510;2023-03-05T03:14:20;101285.00;;;8.97;43.29
21988;BME280;11158;53.404;-1.510;2023-03-05T03:16:46;101277.53;;;9.37;42.29
21988;BME280;11158;53.404;-1.510;2023-03-05T03:19:12;101272.25;;;9.45;42.05
21988;BME280;11158;53.404;-1.510;2023-03-05T03:21:38;101272.22;;;9.63;41.46
21988;BME280;11158;53.404;-1.510;2023-03-05T03:24:04;101270.72;;;9.95;41.27
21988;BME280;11158;53.404;-1.510;2023-03-05T03:26:29;101269.38;;;9.91;41.22
21988;BME280;11158;53.404;-1.510;2023-03-05T03:28:56;101262.59;;;10.04;40.99
21988;BME280;11158;53.404;-1.510;2023-03-05T03:31:22;101263.50;;;9.87;41.42
21988;BME280;11158;53.404;-1.510;2023-03-05T03:33:48;101260.66;;;9.89;41.18
21988;BME280;11158;53.404;-1.510;2023-03-05T03:36:14;101259.09;;;10.04;41.24
21988;BME280;11158;53.404;-1.510;2023-03-05T03:38:39;101256.13;;;10.15;40.83
21988;BME280;11158;53.404;-1.510;2023-03-05T03:41:06;101249.88;;;10.33;40.42
21988;BME280;11158;53.404;-1.510;2023-03-05T03:43:33;101245.91;;;10.53;39.76
21988;BME280;11158;53.404;-1.510;2023-03-05T03:45:59;101245.75;;;10.55;39.61
21988;BME280;11158;53.404;-1.510;2023-03-05T03:48:24;101240.13;;;10.82;39.21
21988;BME280;11158;53.404;-1.510;2023-03-05T03:50:50;101237.44;;;10.82;39.04
21988;BME280;11158;53.404;-1.510;2023-03-05T03:53:15;101231.25;;;10.65;39.39
21988;BME280;11158;53.404;-1.510;2023-03-05T03:55:42;101231.75;;;10.69;39.42
21988;BME280;11158;53.404;-1.510;2023-03-05T03:58:10;101221.56;;;10.73;39.51
21988;BME280;11158;53.404;-1.510;2023-03-05T04:00:36;101224.09;;;10.23;40.17
21988;BME280;11158;53.404;-1.510;2023-03-05T04:03:02;101224.03;;;10.07;40.53
21988;BME280;11158;53.404;-1.510;2023-03-05T04:05:27;101223.50;;;10.46;39.92
21988;BME280;11158;53.404;-1.510;2023-03-05T04:07:53;101218.53;;;10.59;39.72
21988;BME280;11158;53.404;-1.510;2023-03-05T04:10:19;101211.88;;;10.63;39.46
21988;BME280;11158;53.404;-1.510;2023-03-05T04:12:46;101213.16;;;10.51;39.85
21988;BME280;11158;53.404;-1.510;2023-03-05T04:15:11;101210.34;;;10.53;39.64
21988;BME280;11158;53.404;-1.510;2023-03-05T04:17:37;101212.47;;;9.98;40.50
21988;BME280;11158;53.404;-1.510;2023-03-05T04:20:05;101208.91;;;10.24;40.46
21988;BME280;11158;53.404;-1.510;2023-03-05T04:22:31;101202.41;;;10.26;40.14
21988;BME280;11158;53.404;-1.510;2023-03-05T04:24:57;101192.75;;;10.34;40.20
21988;BME280;11158;53.404;-1.510;2023-03-05T04:27:23;101189.34;;;10.15;40.65
21988;BME280;11158;53.404;-1.510;2023-03-05T04:29:48;101195.75;;;10.31;40.26
21988;BME280;11158;53.404;-1.510;2023-03-05T04:32:14;101196.31;;;9.65;41.25
21988;BME280;11158;53.404;-1.510;2023-03-05T04:34:47;101199.72;;;9.50;41.91
21988;BME280;11158;53.404;-1.510;2023-03-05T04:37:12;101190.53;;;9.78;41.14
21988;BME280;11158;53.404;-1.510;2023-03-05T04:39:38;101183.47;;;10.12;40.57
21988;BME280;11158;53.404;-1.510;2023-03-05T04:42:04;101183.81;;;10.17;40.26
21988;BME280;11158;53.404;-1.510;2023-03-05T04:44:29;101177.03;;;10.31;39.75
21988;BME280;11158;53.404;-1.510;2023-03-05T04:46:55;101167.72;;;10.43;39.55
21988;BME280;11158;53.404;-1.510;2023-03-05T04:49:20;101166.31;;;10.22;40.07
21988;BME280;11158;53.404;-1.510;2023-03-05T04:51:46;101156.38;;;10.49;39.69
21988;BME280;11158;53.404;-1.510;2023-03-05T04:54:12;101156.72;;;10.62;39.28
21988;BME280;11158;53.404;-1.510;2023-03-05T04:56:37;101163.22;;;10.43;39.56
21988;BME280;11158;53.404;-1.510;2023-03-05T04:59:03;101146.00;;;10.46;39.43
21988;BME280;11158;53.404;-1.510;2023-03-05T05:01:28;101151.84;;;10.58;39.39
21988;BME280;11158;53.404;-1.510;2023-03-05T05:03:54;101150.88;;;10.59;39.43
21988;BME280;11158;53.404;-1.510;2023-03-05T05:06:19;101143.34;;;10.46;39.18
21988;BME280;11158;53.404;-1.510;2023-03-05T05:08:45;101145.19;;;10.54;39.41
21988;BME280;11158;53.404;-1.510;2023-03-05T05:11:12;101135.31;;;10.79;38.84
21988;BME280;11158;53.404;-1.510;2023-03-05T05:13:38;101124.63;;;10.95;38.41
21988;BME280;11158;53.404;-1.510;2023-03-05T05:16:07;101121.28;;;10.93;38.56
21988;BME280;11158;53.404;-1.510;2023-03-05T05:18:33;101116.91;;;11.00;38.54
21988;BME280;11158;53.404;-1.510;2023-03-05T05:20:58;101115.94;;;10.93;38.74
21988;BME280;11158;53.404;-1.510;2023-03-05T05:23:24;101115.59;;;10.96;38.61
21988;BME280;11158;53.404;-1.510;2023-03-05T05:26:00;101119.25;;;11.03;38.51
21988;BME280;11158;53.404;-1.510;2023-03-05T05:28:26;101113.22;;;10.27;39.83
21988;BME280;11158;53.404;-1.510;2023-03-05T05:30:53;101106.03;;;10.28;39.63
21988;BME280;11158;53.404;-1.510;2023-03-05T05:33:20;101100.91;;;10.59;39.08
21988;BME280;11158;53.404;-1.510;2023-03-05T05:35:45;101097.56;;;10.82;38.73
21988;BME280;11158;53.404;-1.510;2023-03-05T05:38:11;101095.34;;;10.85;38.31
21988;BME280;11158;53.404;-1.510;2023-03-05T05:40:37;101085.16;;;10.97;38.06
21988;BME280;11158;53.404;-1.510;2023-03-05T05:43:02;101092.19;;;11.06;37.93
21988;BME280;11158;53.404;-1.510;2023-03-05T05:45:28;101095.16;;;11.03;37.74
21988;BME280;11158;53.404;-1.510;2023-03-05T05:47:53;101089.88;;;10.71;37.95
21988;BME280;11158;53.404;-1.510;2023-03-05T05:50:19;101092.56;;;10.71;37.53
21988;BME280;11158;53.404;-1.510;2023-03-05T05:52:45;101083.50;;;10.80;37.70
21988;BME280;11158;53.404;-1.510;2023-03-05T05:55:11;101081.84;;;10.62;37.56
21988;BME280;11158;53.404;-1.510;2023-03-05T05:57:37;101076.81;;;10.76;37.58
21988;BME280;11158;53.404;-1.510;2023-03-05T06:00:06;101076.50;;;10.46;38.32
21988;BME280;11158;53.404;-1.510;2023-03-05T06:02:32;101077.50;;;10.53;37.78
21988;BME280;11158;53.404;-1.510;2023-03-05T06:04:58;101079.34;;;10.36;38.27
21988;BME280;11158;53.404;-1.510;2023-03-05T06:07:23;101072.50;;;10.50;38.06
21988;BME280;11158;53.404;-1.510;2023-03-05T06:09:49;101072.16;;;10.61;37.67
21988;BME280;11158;53.404;-1.510;2023-03-05T06:12:15;101069.16;;;10.40;37.77
21988;BME280;11158;53.404;-1.510;2023-03-05T06:14:40;101063.09;;;10.05;38.69
21988;BME280;11158;53.404;-1.510;2023-03-05T06:17:06;101069.81;;;10.42;37.92
21988;BME280;11158;53.404;-1.510;2023-03-05T06:19:31;101059.28;;;10.65;37.64
21988;BME280;11158;53.404;-1.510;2023-03-05T06:21:57;101061.31;;;10.63;37.32
21988;BME280;11158;53.404;-1.510;2023-03-05T06:24:23;101059.59;;;10.86;36.94
21988;BME280;11158;53.404;-1.510;2023-03-05T06:26:48;101054.22;;;10.95;36.72
21988;BME280;11158;53.404;-1.510;2023-03-05T06:29:16;101057.72;;;11.03;36.82
21988;BME280;11158;53.404;-1.510;2023-03-05T06:31:42;101055.63;;;10.50;37.36
21988;BME280;11158;53.404;-1.510;2023-03-05T06:34:08;101059.13;;;10.50;37.56
21988;BME280;11158;53.404;-1.510;2023-03-05T06:36:34;101047.63;;;10.50;37.53
21988;BME280;11158;53.404;-1.510;2023-03-05T06:39:00;101051.38;;;9.39;39.38
21988;BME280;11158;53.404;-1.510;2023-03-05T06:41:28;101053.22;;;9.38;39.34
21988;BME280;11158;53.404;-1.510;2023-03-05T06:43:54;101046.91;;;9.05;39.94
21988;BME280;11158;53.404;-1.510;2023-03-05T06:46:23;101053.97;;;8.08;41.73
21988;BME280;11158;53.404;-1.510;2023-03-05T06:48:49;101052.19;;;8.09;42.28
21988;BME280;11158;53.404;-1.510;2023-03-05T06:51:20;101055.88;;;8.34;41.65
21988;BME280;11158;53.404;-1.510;2023-03-05T06:53:47;101053.50;;;8.31;42.29
21988;BME280;11158;53.404;-1.510;2023-03-05T06:56:13;101048.34;;;8.47;41.71
21988;BME280;11158;53.404;-1.510;2023-03-05T06:58:42;101042.66;;;8.42;41.59
21988;BME280;11158;53.404;-1.510;2023-03-05T07:01:11;101048.53;;;7.64;43.21
21988;BME280;11158;53.404;-1.510;2023-03-05T07:03:37;101046.09;;;7.53;43.54
21988;BME280;11158;53.404;-1.510;2023-03-05T07:06:04;101036.78;;;8.03;43.16
21988;BME280;11158;53.404;-1.510;2023-03-05T07:08:30;101025.22;;;8.74;41.47
21988;BME280;11158;53.404;-1.510;2023-03-05T07:10:56;101028.78;;;8.38;41.90
21988;BME280;11158;53.404;-1.510;2023-03-05T07:13:21;101036.00;;;7.92;42.54
21988;BME280;11158;53.404;-1.510;2023-03-05T07:15:47;101026.31;;;8.63;41.11
21988;BME280;11158;53.404;-1.510;2023-03-05T07:18:12;101020.50;;;8.24;41.63
21988;BME280;11158;53.404;-1.510;2023-03-05T07:20:38;101008.59;;;8.36;41.72
21988;BME280;11158;53.404;-1.510;2023-03-05T07:23:04;101008.59;;;8.36;41.17
21988;BME280;11158;53.404;-1.510;2023-03-05T07:25:29;100999.19;;;8.42;41.37
21988;BME280;11158;53.404;-1.510;2023-03-05T07:27:55;101004.28;;;8.17;41.32
21988;BME280;11158;53.404;-1.510;2023-03-05T07:30:21;100995.34;;;8.62;41.47
21988;BME280;11158;53.404;-1.510;2023-03-05T07:32:47;100993.81;;;7.80;42.44
21988;BME280;11158;53.404;-1.510;2023-03-05T07:35:12;100993.28;;;7.30;43.39
21988;BME280;11158;53.404;-1.510;2023-03-05T07:37:38;100989.84;;;8.19;41.66
21988;BME280;11158;53.404;-1.510;2023-03-05T07:40:04;100988.69;;;8.40;41.09
21988;BME280;11158;53.404;-1.510;2023-03-05T07:42:30;100987.25;;;8.28;41.18
21988;BME280;11158;53.404;-1.510;2023-03-05T07:44:55;100981.94;;;8.80;40.03
21988;BME280;11158;53.404;-1.510;2023-03-05T07:47:21;100970.00;;;8.58;40.35
21988;BME280;11158;53.404;-1.510;2023-03-05T07:49:50;100971.50;;;8.60;40.44
21988;BME280;11158;53.404;-1.510;2023-03-05T07:52:16;100975.81;;;8.35;41.06
21988;BME280;11158;53.404;-1.510;2023-03-05T07:54:41;100974.34;;;8.59;41.08
21988;BME280;11158;53.404;-1.510;2023-03-05T07:57:07;100968.28;;;8.83;40.52
21988;BME280;11158;53.404;-1.510;2023-03-05T07:59:34;100966.38;;;9.01;40.48
21988;BME280;11158;53.404;-1.510;2023-03-05T08:02:01;100963.63;;;9.28;39.94
21988;BME280;11158;53.404;-1.510;2023-03-05T08:04:26;100963.09;;;9.08;39.98
21988;BME280;11158;53.404;-1.510;2023-03-05T08:06:54;100963.66;;;8.85;40.84
21988;BME280;11158;53.404;-1.510;2023-03-05T08:09:19;100962.75;;;9.11;40.65
21988;BME280;11158;53.404;-1.510;2023-03-05T08:11:45;100958.84;;;8.97;41.20
21988;BME280;11158;53.404;-1.510;2023-03-05T08:14:11;100967.69;;;8.97;41.05
21988;BME280;11158;53.404;-1.510;2023-03-05T08:16:37;100967.13;;;8.51;42.33
21988;BME280;11158;53.404;-1.510;2023-03-05T08:19:03;100971.59;;;8.77;41.67
21988;BME280;11158;53.404;-1.510;2023-03-05T08:21:31;100963.84;;;8.66;41.79
21988;BME280;11158;53.404;-1.510;2023-03-05T08:24:03;100968.97;;;8.85;41.33
21988;BME280;11158;53.404;-1.510;2023-03-05T08:26:31;100963.22;;;8.64;41.68
21988;BME280;11158;53.404;-1.510;2023-03-05T08:28:57;100949.16;;;8.35;42.80
21988;BME280;11158;53.404;-1.510;2023-03-05T08:31:25;100947.41;;;8.70;41.74
21988;BME280;11158;53.404;-1.510;2023-03-05T08:33:53;100948.25;;;8.45;42.38
21988;BME280;11158;53.404;-1.510;2023-03-05T08:36:19;100943.63;;;8.29;42.53
21988;BME280;11158;53.404;-1.510;2023-03-05T08:38:45;100939.31;;;8.80;41.79
21988;BME280;11158;53.404;-1.510;2023-03-05T08:41:14;100943.72;;;9.06;41.01
21988;BME280;11158;53.404;-1.510;2023-03-05T08:43:40;100952.72;;;9.05;40.93
21988;BME280;11158;53.404;-1.510;2023-03-05T08:46:06;100935.53;;;8.99;41.65
21988;BME280;11158;53.404;-1.510;2023-03-05T08:48:33;100927.75;;;9.14;40.91
21988;BME280;11158;53.404;-1.510;2023-03-05T08:51:12;100927.13;;;9.36;41.13
21988;BME280;11158;53.404;-1.510;2023-03-05T08:53:39;100919.00;;;10.12;39.62
21988;BME280;11158;53.404;-1.510;2023-03-05T08:56:05;100922.50;;;9.55;40.05
21988;BME280;11158;53.404;-1.510;2023-03-05T08:58:31;100909.50;;;8.85;41.59
21988;BME280;11158;53.404;-1.510;2023-03-05T09:00:56;100906.34;;;8.97;41.64
21988;BME280;11158;53.404;-1.510;2023-03-05T09:03:22;100903.63;;;9.23;41.31
21988;BME280;11158;53.404;-1.510;2023-03-05T09:05:48;100902.72;;;8.98;41.72
21988;BME280;11158;53.404;-1.510;2023-03-05T09:08:14;100901.78;;;9.24;41.82
21988;BME280;11158;53.404;-1.510;2023-03-05T09:10:41;100904.41;;;8.65;42.64
21988;BME280;11158;53.404;-1.510;2023-03-05T09:13:07;100902.47;;;9.26;41.98
21988;BME280;11158;53.404;-1.510;2023-03-05T09:15:34;100909.22;;;8.96;42.38
21988;BME280;11158;53.404;-1.510;2023-03-05T09:18:00;100910.66;;;9.57;40.94
21988;BME280;11158;53.404;-1.510;2023-03-05T09:20:26;100901.81;;;9.73;40.53
21988;BME280;11158;53.404;-1.510;2023-03-05T09:22:53;100906.81;;;9.43;40.86
21988;BME280;11158;53.404;-1.510;2023-03-05T09:25:19;100906.19;;;9.74;40.58
21988;BME280;11158;53.404;-1.510;2023-03-05T09:27:46;100897.81;;;9.53;40.40
21988;BME280;11158;53.404;-1.510;2023-03-05T09:30:12;100898.88;;;9.09;41.69
21988;BME280;11158;53.404;-1.510;2023-03-05T09:32:38;100903.63;;;9.23;41.39
21988;BME280;11158;53.404;-1.510;2023-03-05T09:35:04;100898.31;;;8.81;42.31
21988;BME280;11158;53.404;-1.510;2023-03-05T09:37:30;100901.53;;;8.58;43.29
21988;BME280;11158;53.404;-1.510;2023-03-05T09:39:57;100886.03;;;8.28;43.93
21988;BME280;11158;53.404;-1.510;2023-03-05T09:50:36;100879.47;;;9.41;42.25
21988;BME280;11158;53.404;-1.510;2023-03-05T09:53:17;100867.94;;;9.57;42.06
21988;BME280;11158;53.404;-1.510;2023-03-05T09:56:11;100860.09;;;10.05;40.94
21988;BME280;11158;53.404;-1.510;2023-03-05T09:58:40;100853.44;;;9.93;40.54
21988;BME280;11158;53.404;-1.510;2023-03-05T10:01:10;100870.47;;;9.75;40.97
21988;BME280;11158;53.404;-1.510;2023-03-05T10:12:17;100858.59;;;8.62;43.66
21988;BME280;11158;53.404;-1.510;2023-03-05T10:14:45;100849.25;;;8.57;44.01
21988;BME280;11158;53.404;-1.510;2023-03-05T10:17:45;100843.88;;;9.00;43.27
21988;BME280;11158;53.404;-1.510;2023-03-05T10:23:24;100841.03;;;9.01;42.44
21988;BME280;11158;53.404;-1.510;2023-03-05T10:29:10;100828.25;;;9.21;42.15
21988;BME280;11158;53.404;-1.510;2023-03-05T10:31:44;100821.53;;;8.93;42.83
21988;BME280;11158;53.404;-1.510;2023-03-05T10:42:15;100835.53;;;8.95;43.44
21988;BME280;11158;53.404;-1.510;2023-03-05T10:45:11;100833.16;;;8.75;43.55
21988;BME280;11158;53.404;-1.510;2023-03-05T10:47:41;100824.78;;;9.37;42.42
21988;BME280;11158;53.404;-1.510;2023-03-05T10:52:50;100813.41;;;9.19;42.93
21988;BME280;11158;53.404;-1.510;2023-03-05T10:55:20;100799.75;;;9.71;41.75
21988;BME280;11158;53.404;-1.510;2023-03-05T10:57:46;100787.41;;;9.54;42.02
21988;BME280;11158;53.404;-1.510;2023-03-05T11:00:24;100782.31;;;10.00;41.18
21988;BME280;11158;53.404;-1.510;2023-03-05T11:03:09;100778.41;;;9.22;42.65
21988;BME280;11158;53.404;-1.510;2023-03-05T11:05:40;100770.88;;;9.09;43.12
21988;BME280;11158;53.404;-1.510;2023-03-05T11:13:50;100764.94;;;8.14;46.25
21988;BME280;11158;53.404;-1.510;2023-03-05T11:18:47;100761.31;;;9.89;42.46
21988;BME280;11158;53.404;-1.510;2023-03-05T11:21:24;100756.56;;;9.51;41.79
21988;BME280;11158;53.404;-1.510;2023-03-05T11:24:15;100761.72;;;9.61;42.59
21988;BME280;11158;53.404;-1.510;2023-03-05T11:26:50;100760.22;;;9.50;42.12
21988;BME280;11158;53.404;-1.510;2023-03-05T11:31:44;100748.41;;;9.28;42.83
21988;BME280;11158;53.404;-1.510;2023-03-05T11:37:03;100740.19;;;10.18;41.16
21988;BME280;11158;53.404;-1.510;2023-03-05T11:39:31;100744.00;;;9.76;42.16
21988;BME280;11158;53.404;-1.510;2023-03-05T11:44:48;100729.94;;;12.13;37.82
21988;BME280;11158;53.404;-1.510;2023-03-05T11:50:20;100723.47;;;11.63;37.65
21988;BME280;11158;53.404;-1.510;2023-03-05T11:52:50;100719.47;;;11.59;38.00
21988;BME280;11158;53.404;-1.510;2023-03-05T11:55:23;100719.63;;;11.42;38.03
21988;BME280;11158;53.404;-1.510;2023-03-05T12:00:35;100709.16;;;11.85;37.69
21988;BME280;11158;53.404;-1.510;2023-03-05T12:03:09;100694.47;;;12.26;36.78
21988;BME280;11158;53.404;-1.510;2023-03-05T12:05:38;100688.56;;;11.71;37.08
21988;BME280;11158;53.404;-1.510;2023-03-05T12:08:12;100693.06;;;11.56;37.71
21988;BME280;11158;53.404;-1.510;2023-03-05T12:10:39;100681.88;;;12.26;36.75
21988;BME280;11158;53.404;-1.510;2023-03-05T12:13:36;100674.97;;;12.17;36.87
21988;BME280;11158;53.404;-1.510;2023-03-05T12:16:13;100668.25;;;12.43;35.73
21988;BME280;11158;53.404;-1.510;2023-03-05T12:18:51;100657.53;;;12.64;35.53
21988;BME280;11158;53.404;-1.510;2023-03-05T12:24:00;100652.28;;;13.97;33.77
21988;BME280;11158;53.404;-1.510;2023-03-05T12:29:42;100651.75;;;11.05;36.50
21988;BME280;11158;53.404;-1.510;2023-03-05T12:34:57;100643.72;;;10.67;37.75
21988;BME280;11158;53.404;-1.510;2023-03-05T12:47:38;100636.44;;;9.99;38.65
21988;BME280;11158;53.404;-1.510;2023-03-05T12:50:09;100628.41;;;10.99;37.72
21988;BME280;11158;53.404;-1.510;2023-03-05T12:55:29;100612.56;;;11.72;35.30
21988;BME280;11158;53.404;-1.510;2023-03-05T12:58:11;100617.53;;;10.63;37.74
21988;BME280;11158;53.404;-1.510;2023-03-05T13:00:50;100607.72;;;10.55;38.77
21988;BME280;11158;53.404;-1.510;2023-03-05T13:03:30;100603.53;;;11.28;37.25
21988;BME280;11158;53.404;-1.510;2023-03-05T13:05:58;100605.72;;;10.95;36.82
21988;BME280;11158;53.404;-1.510;2023-03-05T13:08:30;100608.59;;;10.24;38.52
21988;BME280;11158;53.404;-1.510;2023-03-05T13:13:26;100584.63;;;10.39;37.62
21988;BME280;11158;53.404;-1.510;2023-03-05T13:15:53;100588.72;;;9.96;38.21
21988;BME280;11158;53.404;-1.510;2023-03-05T13:18:25;100592.59;;;9.46;39.02
21988;BME280;11158;53.404;-1.510;2023-03-05T13:21:12;100585.31;;;10.10;37.24
21988;BME280;11158;53.404;-1.510;2023-03-05T13:23:50;100583.25;;;9.50;37.53
21988;BME280;11158;53.404;-1.510;2023-03-05T13:26:28;100576.97;;;10.05;37.35
21988;BME280;11158;53.404;-1.510;2023-03-05T13:29:13;100577.22;;;9.95;37.61
21988;BME280;11158;53.404;-1.510;2023-03-05T13:32:00;100572.31;;;10.53;36.79
21988;BME280;11158;53.404;-1.510;2023-03-05T13:37:01;100560.81;;;11.20;35.46
21988;BME280;11158;53.404;-1.510;2023-03-05T13:39:31;100561.59;;;10.38;37.27
21988;BME280;11158;53.404;-1.510;2023-03-05T13:42:04;100553.16;;;11.02;35.81
21988;BME280;11158;53.404;-1.510;2023-03-05T13:44:31;100547.41;;;10.76;36.60
21988;BME280;11158;53.404;-1.510;2023-03-05T13:47:20;100547.69;;;11.40;35.80
21988;BME280;11158;53.404;-1.510;2023-03-05T13:49:46;100548.91;;;10.93;36.70
21988;BME280;11158;53.404;-1.510;2023-03-05T13:52:22;100549.91;;;11.22;36.18
21988;BME280;11158;53.404;-1.510;2023-03-05T13:54:48;100549.53;;;11.40;36.04
21988;BME280;11158;53.404;-1.510;2023-03-05T13:57:40;100536.31;;;12.04;34.68
21988;BME280;11158;53.404;-1.510;2023-03-05T14:02:49;100529.78;;;11.56;35.19
21988;BME280;11158;53.404;-1.510;2023-03-05T14:05:15;100528.88;;;11.48;35.91
21988;BME280;11158;53.404;-1.510;2023-03-05T14:07:41;100528.59;;;10.84;36.60
21988;BME280;11158;53.404;-1.510;2023-03-05T14:12:52;100524.31;;;12.00;35.28
21988;BME280;11158;53.404;-1.510;2023-03-05T14:18:06;100512.97;;;12.69;33.57
21988;BME280;11158;53.404;-1.510;2023-03-05T14:20:32;100508.56;;;11.24;35.33
21988;BME280;11158;53.404;-1.510;2023-03-05T14:23:00;100509.06;;;11.64;34.80